createdAt,value
2018-12-09T00:08:14.391Z,21.6
2018-12-09T00:18:13.593Z,21.6
2018-12-09T00:28:12.801Z,21.6
2018-12-09T00:38:12.007Z,21.6
2018-12-09T00:48:11.221Z,21.5
2018-12-09T00:58:10.423Z,21.5
2018-12-09T01:08:09.634Z,21.5
2018-12-09T01:18:08.837Z,21.5
2018-12-09T01:28:08.038Z,21.4
2018-12-09T01:38:07.251Z,21.4
2018-12-09T01:48:06.454Z,21.4
2018-12-09T01:58:05.665Z,21.4
2018-12-09T02:08:04.864Z,21.4
2018-12-09T02:18:04.076Z,21.4
2018-12-09T02:28:03.276Z,21.4
2018-12-09T02:38:02.484Z,21.4
2018-12-09T02:48:01.742Z,21.4
2018-12-09T02:58:00.894Z,21.4
2018-12-09T03:08:00.103Z,21.4
2018-12-09T03:17:59.301Z,21.4
2018-12-09T03:27:58.511Z,21.3
2018-12-09T03:37:57.717Z,21.3
2018-12-09T03:47:56.924Z,21.3
2018-12-09T03:57:56.127Z,21.3
2018-12-09T04:07:55.335Z,21.3
2018-12-09T04:17:54.533Z,21.3
2018-12-09T04:27:53.740Z,21.3
2018-12-09T04:37:52.945Z,21.3
2018-12-09T04:47:52.153Z,21.3
2018-12-09T04:57:51.350Z,21.3
2018-12-09T05:07:50.555Z,21.3
2018-12-09T05:17:49.765Z,21.3
2018-12-09T05:27:48.969Z,21.2
2018-12-09T05:37:48.170Z,21.2
2018-12-09T05:47:47.376Z,21.3
2018-12-09T05:57:46.591Z,21.3
2018-12-09T06:07:45.804Z,21.3
2018-12-09T06:17:45.001Z,21.3
2018-12-09T06:27:44.212Z,21.4
2018-12-09T06:37:43.425Z,21.4
2018-12-09T06:47:42.629Z,21.8
2018-12-09T06:57:41.846Z,21.9
2018-12-09T07:07:41.055Z,22
2018-12-09T07:17:40.264Z,22.2
2018-12-09T07:27:39.479Z,22.3
2018-12-09T07:37:38.686Z,22.4
2018-12-09T07:47:37.897Z,22.3
2018-12-09T07:57:37.105Z,22.3
2018-12-09T08:07:36.317Z,22.3
2018-12-09T08:17:35.528Z,22.3
2018-12-09T14:43:43.543Z,22.9
2018-12-09T14:53:42.758Z,22.9
2018-12-09T15:03:41.968Z,22.6
2018-12-09T15:13:41.189Z,22.4
2018-12-09T15:23:40.395Z,22.4
2018-12-09T15:33:39.619Z,22.3
2018-12-09T15:43:38.874Z,22.3
2018-12-09T15:53:38.177Z,22.4
2018-12-09T16:03:37.468Z,22.5
2018-12-09T16:13:36.775Z,22.7
2018-12-09T16:23:36.063Z,22.6
2018-12-09T16:33:35.367Z,22.7
2018-12-09T16:43:34.572Z,22.9
2018-12-09T16:53:33.798Z,22.9
2018-12-09T17:03:33.011Z,22.7
2018-12-09T17:13:32.227Z,22.6
2018-12-09T17:23:31.441Z,22.5
2018-12-09T17:33:30.664Z,22.4
2018-12-09T17:43:29.886Z,22.4
2018-12-09T17:53:29.131Z,22.7
2018-12-09T18:03:28.308Z,22.8
2018-12-09T18:13:27.537Z,22.9
2018-12-09T18:23:26.744Z,22.9
2018-12-09T18:33:25.969Z,22.8
2018-12-09T18:43:25.181Z,22.9
2018-12-09T18:53:24.388Z,22.7
2018-12-09T19:03:23.600Z,22.6
2018-12-09T19:13:22.822Z,22.9
2018-12-09T19:23:22.037Z,23
2018-12-09T19:33:21.270Z,22.8
2018-12-09T19:43:20.521Z,22.8
2018-12-09T19:53:19.704Z,22.7
2018-12-09T20:03:18.924Z,22.6
2018-12-09T20:13:18.142Z,22.6
2018-12-09T20:23:17.349Z,22.5
2018-12-09T20:33:16.571Z,22.6
2018-12-09T20:43:15.789Z,22.6
2018-12-09T20:53:15.008Z,22.5
2018-12-09T21:03:14.221Z,22.6
2018-12-09T21:13:13.435Z,22.4
2018-12-09T21:23:12.646Z,22.3
2018-12-09T21:33:11.861Z,22.3
2018-12-09T21:43:11.079Z,22.3
2018-12-09T21:53:10.288Z,22.2
2018-12-09T22:03:09.504Z,22.1
2018-12-09T22:13:08.713Z,22.1
2018-12-09T22:23:07.932Z,22.2
2018-12-09T22:33:07.149Z,22.2
2018-12-09T22:43:06.366Z,22.2
2018-12-09T22:53:05.583Z,22.1
2018-12-09T23:03:04.806Z,22.1
2018-12-09T23:13:04.009Z,22.1
2018-12-09T23:23:03.224Z,22
2018-12-09T23:33:02.436Z,22
2018-12-09T23:43:02.198Z,21.9
2018-12-09T23:53:01.410Z,21.9
